createdAt,value
2018-08-04T00:03:32.177Z,68.28
2018-08-04T00:08:36.835Z,68.15
2018-08-04T00:13:41.508Z,69.08
2018-08-04T00:18:46.284Z,69.28
2018-08-04T00:23:50.968Z,68.83
2018-08-04T00:28:55.663Z,69.10
2018-08-04T00:34:00.472Z,69.12
2018-08-04T00:39:08.283Z,70.54
2018-08-04T00:44:13.193Z,70.81
2018-08-04T00:49:17.966Z,71.05
2018-08-04T00:54:22.936Z,70.53
2018-08-04T00:59:27.807Z,70.97
2018-08-04T01:04:32.538Z,71.13
2018-08-04T01:09:37.423Z,71.87
2018-08-04T01:14:42.180Z,72.08
2018-08-04T01:19:46.770Z,72.91
2018-08-04T01:24:51.444Z,72.01
2018-08-04T01:29:56.168Z,73.32
2018-08-04T01:35:00.844Z,73.10
2018-08-04T01:40:06.835Z,73.30
2018-08-04T01:45:11.581Z,73.68
2018-08-04T01:50:16.344Z,73.95
2018-08-04T01:55:21.014Z,73.87
2018-08-04T02:00:25.692Z,74.79
2018-08-04T02:05:30.110Z,74.46
2018-08-04T02:10:34.995Z,74.82
2018-08-04T02:15:39.512Z,74.98
2018-08-04T02:20:44.285Z,75.62
2018-08-04T02:25:49.083Z,75.78
2018-08-04T02:30:53.739Z,76.83
2018-08-04T02:35:58.452Z,77.30
2018-08-04T02:41:03.447Z,76.56
2018-08-04T02:46:08.105Z,76.79
2018-08-04T02:51:12.794Z,77.09
2018-08-04T02:56:17.580Z,77.89
2018-08-04T03:01:22.190Z,78.03
2018-08-04T03:06:26.863Z,77.61
2018-08-04T03:11:31.655Z,78.33
2018-08-04T03:16:36.316Z,78.46
2018-08-04T03:21:40.993Z,79.03
2018-08-04T03:26:45.811Z,79.15
2018-08-04T03:31:50.457Z,79.23
2018-08-04T03:36:55.266Z,79.69
2018-08-04T03:41:59.954Z,80.22
2018-08-04T03:47:04.639Z,79.46
2018-08-04T03:52:09.373Z,80.35
2018-08-04T03:57:14.074Z,80.04
2018-08-04T04:02:19.091Z,80.20
2018-08-04T04:07:23.933Z,79.31
2018-08-04T04:12:28.614Z,78.84
2018-08-04T04:17:44.315Z,79.34
2018-08-04T04:22:49.640Z,78.82
2018-08-04T04:27:54.462Z,76.73
2018-08-04T04:32:59.219Z,73.83
2018-08-04T04:38:03.936Z,72.01
2018-08-04T04:43:08.717Z,69.55
2018-08-04T04:48:13.469Z,68.77
2018-08-04T04:53:18.131Z,68.26
2018-08-04T04:58:22.830Z,67.65
2018-08-04T05:03:27.476Z,65.55
2018-08-04T05:08:32.285Z,63.67
2018-08-04T05:13:36.991Z,59.60
2018-08-04T05:18:41.786Z,58.28
2018-08-04T05:23:46.479Z,58.51
2018-08-04T05:28:51.108Z,57.76
2018-08-04T05:33:55.717Z,59.77
2018-08-04T05:39:00.380Z,60.83
2018-08-04T05:44:05.331Z,58.70
2018-08-04T05:49:10.125Z,59.09
2018-08-04T05:54:14.960Z,57.42
2018-08-04T05:59:19.946Z,56.26
2018-08-04T06:04:24.700Z,56.58
2018-08-04T06:09:29.381Z,56.23
2018-08-04T06:14:34.115Z,53.28
2018-08-04T06:19:38.778Z,54.03
2018-08-04T06:24:43.626Z,54.08
2018-08-04T06:29:48.279Z,51.98
2018-08-04T06:34:53.071Z,50.88
2018-08-04T06:39:57.890Z,51.21
2018-08-04T06:45:02.695Z,53.85
2018-08-04T06:50:08.202Z,51.32
2018-08-04T06:55:12.846Z,51.16
2018-08-04T07:00:17.523Z,53.95
2018-08-04T07:05:22.262Z,52.84
2018-08-04T07:10:27.040Z,53.76
2018-08-04T07:15:31.737Z,51.42
2018-08-04T07:20:36.508Z,51.34
2018-08-04T07:25:41.120Z,49.51
2018-08-04T07:30:45.801Z,49.44
2018-08-04T07:35:50.474Z,49.25
2018-08-04T07:40:55.317Z,47.52
2018-08-04T07:46:00.044Z,44.66
2018-08-04T07:51:04.745Z,44.45
2018-08-04T07:56:09.412Z,42.76
2018-08-04T08:01:14.205Z,42.34
2018-08-04T08:06:18.956Z,41.81
2018-08-04T08:11:23.448Z,38.89
2018-08-04T08:16:28.130Z,39.23
2018-08-04T08:21:32.893Z,38.04
2018-08-04T08:26:37.602Z,38.61
2018-08-04T08:31:42.324Z,38.27
2018-08-04T08:36:47.030Z,37.81
2018-08-04T08:41:51.870Z,37.09
2018-08-04T08:46:56.568Z,37.59
2018-08-04T08:52:01.267Z,37.47
2018-08-04T08:57:06.033Z,36.51
2018-08-04T09:02:10.865Z,36.71
2018-08-04T09:07:15.616Z,34.53
2018-08-04T09:12:20.411Z,34.69
2018-08-04T09:17:25.174Z,35.95
2018-08-04T09:22:29.975Z,34.44
2018-08-04T09:27:34.831Z,34.71
2018-08-04T09:32:39.798Z,32.94
2018-08-04T09:37:45.004Z,32.60
2018-08-04T09:42:49.659Z,32.31
2018-08-04T09:47:54.346Z,30.97
2018-08-04T09:52:59.175Z,28.81
2018-08-04T09:58:03.688Z,25.53
2018-08-04T10:03:08.474Z,25.53
2018-08-04T10:08:13.089Z,24.21
2018-08-04T10:13:17.767Z,27.29
2018-08-04T10:18:22.413Z,25.35
2018-08-04T10:23:27.119Z,26.08
2018-08-04T10:28:31.844Z,25.61
2018-08-04T10:33:36.945Z,25.21
2018-08-04T10:38:41.714Z,23.48
2018-08-04T10:43:46.348Z,24.96
2018-08-04T10:48:51.113Z,25.02
2018-08-04T10:53:55.845Z,24.83
2018-08-04T10:59:00.529Z,25.45
2018-08-04T11:04:05.260Z,25.39
2018-08-04T11:09:11.523Z,25.01
2018-08-04T11:14:16.245Z,23.49
2018-08-04T11:19:20.632Z,22.96
2018-08-04T11:24:25.437Z,22.22
2018-08-04T11:29:30.170Z,22.41
2018-08-04T11:34:34.872Z,22.45
2018-08-04T11:39:39.508Z,23.60
2018-08-04T11:44:44.239Z,24.78
2018-08-04T11:49:49.013Z,25.59
2018-08-04T11:54:53.689Z,25.45
2018-08-04T11:59:58.039Z,23.92
2018-08-04T12:05:02.714Z,24.13
2018-08-04T12:10:08.821Z,23.53
2018-08-04T12:15:13.428Z,25.35
2018-08-04T12:20:18.095Z,26.48
2018-08-04T12:25:22.809Z,27.35
2018-08-04T12:30:27.514Z,27.35
2018-08-04T12:35:32.169Z,27.52
2018-08-04T12:40:37.001Z,25.28
2018-08-04T12:45:41.720Z,25.96
2018-08-04T12:50:46.464Z,25.57
2018-08-04T12:55:51.509Z,26.63
2018-08-04T13:00:56.365Z,26.00
2018-08-04T13:06:01.138Z,25.77
2018-08-04T13:11:06.008Z,24.17
2018-08-04T13:16:10.728Z,25.22
2018-08-04T13:21:15.395Z,24.70
2018-08-04T13:26:20.066Z,26.37
2018-08-04T13:31:24.709Z,27.59
2018-08-04T13:36:29.455Z,27.96
2018-08-04T13:41:34.145Z,27.67
2018-08-04T13:46:39.604Z,27.49
2018-08-04T13:51:44.317Z,26.61
2018-08-04T13:56:49.533Z,27.43
2018-08-04T14:01:54.375Z,28.13
2018-08-04T14:06:59.144Z,26.41
2018-08-04T14:12:03.909Z,26.87
2018-08-04T14:17:08.541Z,26.48
2018-08-04T14:22:13.433Z,26.98
2018-08-04T14:27:18.192Z,26.45
2018-08-04T14:32:23.213Z,26.82
2018-08-04T14:37:28.003Z,27.18
2018-08-04T14:42:34.314Z,26.57
2018-08-04T14:47:40.190Z,26.12
2018-08-04T14:52:45.394Z,24.69
2018-08-04T14:57:50.153Z,24.80
2018-08-04T15:02:59.026Z,25.12
2018-08-04T15:08:04.275Z,26.38
2018-08-04T15:13:12.763Z,26.82
2018-08-04T15:18:17.453Z,26.06
2018-08-04T15:23:27.852Z,26.67
2018-08-04T15:28:32.596Z,25.61
2018-08-04T15:33:37.386Z,25.66
2018-08-04T15:38:42.112Z,25.97
2018-08-04T15:43:46.737Z,25.68
2018-08-04T15:48:51.468Z,26.39
2018-08-04T15:53:56.192Z,25.12
2018-08-04T15:59:07.049Z,24.61
2018-08-04T16:04:12.098Z,25.67
2018-08-04T16:09:17.008Z,26.28
2018-08-04T16:14:21.695Z,27.46
2018-08-04T16:19:26.306Z,27.41
2018-08-04T16:24:31.102Z,26.92
2018-08-04T16:29:35.839Z,28.20
2018-08-04T16:34:40.640Z,27.43
2018-08-04T16:39:45.305Z,26.99
2018-08-04T16:44:49.984Z,28.15
2018-08-04T16:49:54.650Z,27.65
2018-08-04T16:54:59.419Z,28.33
2018-08-04T17:00:04.210Z,28.80
2018-08-04T17:05:08.932Z,28.65
2018-08-04T17:10:13.642Z,28.59
2018-08-04T17:15:18.465Z,28.63
2018-08-04T17:20:23.268Z,31.41
2018-08-04T17:25:27.999Z,31.27
2018-08-04T17:30:32.756Z,31.69
2018-08-04T17:35:37.470Z,34.03
2018-08-04T17:40:42.114Z,34.14
2018-08-04T17:45:46.766Z,33.93
2018-08-04T17:50:51.539Z,34.65
2018-08-04T17:55:56.170Z,34.70
2018-08-04T18:01:00.823Z,35.97
2018-08-04T18:06:05.572Z,35.33
2018-08-04T18:11:10.250Z,35.50
2018-08-04T18:16:14.921Z,36.19
2018-08-04T18:21:19.637Z,37.33
2018-08-04T18:26:24.521Z,38.27
2018-08-04T18:31:29.303Z,37.89
2018-08-04T18:36:34.273Z,39.88
2018-08-04T18:41:39.083Z,40.61
2018-08-04T18:46:43.872Z,40.36
2018-08-04T18:51:48.556Z,42.61
2018-08-04T18:56:53.270Z,43.21
2018-08-04T19:01:57.925Z,42.21
2018-08-04T19:07:02.579Z,44.48
2018-08-04T19:12:07.336Z,44.71
2018-08-04T19:17:12.138Z,45.28
2018-08-04T19:22:17.181Z,45.68
2018-08-04T19:27:21.941Z,46.71
2018-08-04T19:32:26.607Z,47.11
2018-08-04T19:37:31.323Z,47.55
2018-08-04T19:42:36.028Z,47.17
2018-08-04T19:47:40.713Z,47.61
2018-08-04T19:52:45.547Z,46.46
2018-08-04T19:57:50.383Z,47.91
2018-08-04T20:02:55.052Z,47.73
2018-08-04T20:08:00.108Z,48.99
2018-08-04T20:13:04.824Z,48.88
2018-08-04T20:18:09.470Z,50.13
2018-08-04T20:23:14.215Z,50.55
2018-08-04T20:28:18.913Z,50.73
2018-08-04T20:33:23.704Z,52.12
2018-08-04T20:38:28.398Z,50.99
2018-08-04T20:43:33.127Z,51.71
2018-08-04T20:48:37.830Z,53.27
2018-08-04T20:53:42.504Z,52.28
2018-08-04T20:58:47.247Z,54.06
2018-08-04T21:03:52.088Z,52.91
2018-08-04T21:08:56.809Z,53.87
2018-08-04T21:14:01.613Z,54.16
2018-08-04T21:19:06.374Z,53.71
2018-08-04T21:24:11.020Z,52.98
2018-08-04T21:29:15.793Z,52.96
2018-08-04T21:34:20.723Z,51.65
2018-08-04T21:39:25.481Z,51.30
2018-08-04T21:44:30.398Z,50.73
2018-08-04T21:49:35.182Z,48.81
2018-08-04T21:54:39.778Z,48.57
2018-08-04T21:59:44.412Z,49.76
2018-08-04T22:04:49.110Z,49.54
2018-08-04T22:09:53.797Z,49.93
2018-08-04T22:14:58.520Z,48.93
2018-08-04T22:20:03.176Z,46.08
2018-08-04T22:25:10.130Z,47.33
2018-08-04T22:30:16.136Z,46.05
2018-08-04T22:35:21.309Z,48.78
2018-08-04T22:40:26.081Z,44.90
2018-08-04T22:46:14.743Z,42.84
2018-08-04T22:51:20.907Z,43.42
2018-08-04T22:56:25.781Z,45.27
2018-08-04T23:01:31.256Z,47.82
2018-08-04T23:06:35.939Z,48.62
2018-08-04T23:11:40.564Z,48.89
2018-08-04T23:16:45.309Z,49.04
2018-08-04T23:21:50.106Z,49.83
2018-08-04T23:26:54.885Z,50.51
2018-08-04T23:31:59.706Z,51.40
2018-08-04T23:37:06.382Z,52.27
2018-08-04T23:42:12.663Z,53.14
2018-08-04T23:47:17.340Z,50.90
2018-08-04T23:52:22.013Z,51.00
2018-08-04T23:57:26.831Z,50.17
